Language selection

Weather shortcuts

Whitefish Bay: Past 24 Hour Conditions

 

Lake Of the Woods - 45148

03:00 AM EDT 24 June 2024Buoy position: 49.63N 94.57W
Disclaimer

This table is a summary of hourly weather conditions for the past 24 hours.
Please note that these observations might not always be representative of weather conditions over their associated marine area.

Date / Time
(EDT)
Wind(knots) Wave height(m) Wave period(s) Pressure(kPa) Air tempC) Water tempC)
24 June 2024
3:00 S 5 gusts 7 0.01 1.6 101.0 19 21
2:00 SSW 6 gusts 8 0.01 1.6 101.0 20 21
1:00 SSW 7 gusts 9 0.02 1.6 101.1 20 21
0:00 SSW 7 gusts 8 0.01 1.8 101.1 20 22
23 June 2024
23:00 SW 7 gusts 9 0.03 1.7 101.0 21 22
22:00 SSW 3 gusts 4 0.02 2.0 101.0 22 22
21:00 SSW 5 gusts 5 0.03 1.8 101.0 23 22
20:00 S 5 gusts 6 0.03 1.7 101.0 23 22
19:00 S 6 gusts 7 0.04 2.1 101.0 22 23
18:00 SSE 4 gusts 7 0.04 1.8 101.0 22 22
17:00 S 5 gusts 7 0.04 1.7 101.0 21 22
16:00 SSW 4 gusts 5 0.06 1.6 101.0 21 22
15:00 SSW 6 gusts 8 0.04 1.9 101.0 20 22
14:00 SW 4 gusts 6 0.04 1.6 101.0 19 21
13:00 WSW 6 gusts 9 0.08 1.6 101.0 18 21
12:00 WSW 10 gusts 11 0.11 1.7 101.0 17 21
11:00 WSW 8 gusts 11 0.03 1.6 101.0 17 21
10:00 NW 5 gusts 6 0.03 2.0 100.9 17 21
9:00 WNW 6 gusts 9 0.02 1.8 100.9 16 21
8:00 NW 5 gusts 6 0.02 2.0 100.9 17 21
7:00 NNW 4 gusts 5 0.01 1.6 100.9 17 21
6:00 WNW 4 gusts 6 0.02 1.6 100.9 17 21
5:00 NNE 4 gusts 6 0.03 1.6 100.8 18 21
4:00 NE 9 gusts 10 0.04 1.6 100.8 18 21
3:00 NNE 6 gusts 8 0.01 1.6 100.9 18 21

Zoom-in to make a selection

Map of Great Lakes - Lake Superior marine weather areas Mid Superior - 45001 East Superior - 45004 West Superior - 45006 Slate Island - 45136 Lake Of the Woods - 45148 Kenora Airport Royal Island Armstrong Airport Caribou Island Marathon Airport Pukaskwa National Park Thunder Bay Airport Welcome Island Little Flatland Island Sault Ste. Marie Airport Wawa Airport
Legend:
buoy Buoy
land station Land Station

Great Lakes - Lake Superior Area

Another Region

Features

New Predicting and Alerting Coastal Flooding Program

Find out about coastal flooding coverage, forecasts and warnings in your region

Date modified: